sim
Sign-in with your pilot id or email,
or register
Callsign
Passwort

Schedule Details

Flight Number: RYR1066 (2)
Departure: Athens Eleftherios Venizelos (LGAV) at 06:00
Arrival: Thessaloniki International Airport (LGTS) at 07:00
Route: Ryanair Passenger Schedule. Enter filed route here before submitting Pirep.

Weather Information
Getting current METAR information for LGAV 211220Z 05012KT 9999 FEW030 16/05 Q1022 NOSIG
Getting current METAR information for LGTS 211220Z 34013KT 9999 FEW030 16/00 Q1022 NOSIG

Schedule Frequency

Route Map